sensor_id;sensor_type;location;lat;lon;timestamp;P1;durP1;ratioP1;P2;durP2;ratioP2
46589;SDS011;32313;48.722;9.362;2024-03-02T00:01:04;39.07;;;29.40;;
46589;SDS011;32313;48.722;9.362;2024-03-02T00:03:30;45.70;;;35.33;;
46589;SDS011;32313;48.722;9.362;2024-03-02T00:05:55;47.77;;;34.83;;
46589;SDS011;32313;48.722;9.362;2024-03-02T00:08:24;42.33;;;34.00;;
46589;SDS011;32313;48.722;9.362;2024-03-02T00:11:00;46.60;;;36.80;;
46589;SDS011;32313;48.722;9.362;2024-03-02T00:13:28;47.43;;;35.07;;
46589;SDS011;32313;48.722;9.362;2024-03-02T00:15:55;45.67;;;34.40;;
46589;SDS011;32313;48.722;9.362;2024-03-02T00:18:31;47.10;;;36.50;;
46589;SDS011;32313;48.722;9.362;2024-03-02T00:20:59;40.47;;;34.13;;
46589;SDS011;32313;48.722;9.362;2024-03-02T00:23:32;44.23;;;35.00;;
46589;SDS011;32313;48.722;9.362;2024-03-02T00:26:00;47.83;;;36.50;;
46589;SDS011;32313;48.722;9.362;2024-03-02T00:31:08;44.50;;;33.60;;
46589;SDS011;32313;48.722;9.362;2024-03-02T00:33:40;41.73;;;31.70;;
46589;SDS011;32313;48.722;9.362;2024-03-02T00:36:11;46.30;;;34.93;;
46589;SDS011;32313;48.722;9.362;2024-03-02T00:38:44;51.20;;;36.63;;
46589;SDS011;32313;48.722;9.362;2024-03-02T00:41:21;58.33;;;37.07;;
46589;SDS011;32313;48.722;9.362;2024-03-02T00:46:30;49.90;;;36.80;;
46589;SDS011;32313;48.722;9.362;2024-03-02T00:49:00;48.90;;;35.77;;
46589;SDS011;32313;48.722;9.362;2024-03-02T00:51:28;51.63;;;36.17;;
46589;SDS011;32313;48.722;9.362;2024-03-02T00:53:57;51.90;;;36.57;;
46589;SDS011;32313;48.722;9.362;2024-03-02T00:56:24;48.17;;;35.83;;
46589;SDS011;32313;48.722;9.362;2024-03-02T00:58:51;45.77;;;34.90;;
46589;SDS011;32313;48.722;9.362;2024-03-02T01:01:17;49.23;;;36.50;;
46589;SDS011;32313;48.722;9.362;2024-03-02T01:03:45;46.77;;;34.37;;
46589;SDS011;32313;48.722;9.362;2024-03-02T01:06:10;49.70;;;36.43;;
46589;SDS011;32313;48.722;9.362;2024-03-02T01:08:37;49.30;;;35.40;;
46589;SDS011;32313;48.722;9.362;2024-03-02T01:11:03;46.93;;;36.33;;
46589;SDS011;32313;48.722;9.362;2024-03-02T01:13:29;43.23;;;33.67;;
46589;SDS011;32313;48.722;9.362;2024-03-02T01:15:55;43.57;;;34.20;;
46589;SDS011;32313;48.722;9.362;2024-03-02T01:18:21;44.80;;;33.70;;
46589;SDS011;32313;48.722;9.362;2024-03-02T01:20:49;43.57;;;33.93;;
46589;SDS011;32313;48.722;9.362;2024-03-02T01:23:24;43.57;;;33.67;;
46589;SDS011;32313;48.722;9.362;2024-03-02T01:25:50;44.03;;;35.10;;
46589;SDS011;32313;48.722;9.362;2024-03-02T01:28:17;43.43;;;33.30;;
46589;SDS011;32313;48.722;9.362;2024-03-02T01:30:44;48.83;;;36.93;;
46589;SDS011;32313;48.722;9.362;2024-03-02T01:33:10;46.20;;;34.77;;
46589;SDS011;32313;48.722;9.362;2024-03-02T01:35:36;42.83;;;33.97;;
46589;SDS011;32313;48.722;9.362;2024-03-02T01:38:02;49.50;;;36.07;;
46589;SDS011;32313;48.722;9.362;2024-03-02T01:40:28;47.40;;;34.60;;
46589;SDS011;32313;48.722;9.362;2024-03-02T01:42:55;48.20;;;34.20;;
46589;SDS011;32313;48.722;9.362;2024-03-02T01:45:23;41.87;;;33.93;;
46589;SDS011;32313;48.722;9.362;2024-03-02T01:47:49;49.30;;;34.73;;
46589;SDS011;32313;48.722;9.362;2024-03-02T01:50:15;44.47;;;35.00;;
46589;SDS011;32313;48.722;9.362;2024-03-02T01:52:40;40.20;;;31.63;;
46589;SDS011;32313;48.722;9.362;2024-03-02T01:55:06;45.00;;;33.57;;
46589;SDS011;32313;48.722;9.362;2024-03-02T01:57:35;46.53;;;35.90;;
46589;SDS011;32313;48.722;9.362;2024-03-02T02:00:01;46.03;;;33.27;;
46589;SDS011;32313;48.722;9.362;2024-03-02T02:02:36;56.90;;;37.90;;
46589;SDS011;32313;48.722;9.362;2024-03-02T02:05:02;52.03;;;35.87;;
46589;SDS011;32313;48.722;9.362;2024-03-02T02:07:29;52.67;;;37.00;;
46589;SDS011;32313;48.722;9.362;2024-03-02T02:09:54;47.67;;;34.17;;
46589;SDS011;32313;48.722;9.362;2024-03-02T02:12:20;51.00;;;34.50;;
46589;SDS011;32313;48.722;9.362;2024-03-02T02:14:49;48.17;;;33.63;;
46589;SDS011;32313;48.722;9.362;2024-03-02T02:17:18;39.57;;;32.87;;
46589;SDS011;32313;48.722;9.362;2024-03-02T02:19:44;45.23;;;34.73;;
46589;SDS011;32313;48.722;9.362;2024-03-02T02:22:10;47.53;;;33.90;;
46589;SDS011;32313;48.722;9.362;2024-03-02T02:24:39;46.03;;;32.00;;
46589;SDS011;32313;48.722;9.362;2024-03-02T02:27:08;49.53;;;34.47;;
46589;SDS011;32313;48.722;9.362;2024-03-02T02:29:35;49.17;;;37.70;;
46589;SDS011;32313;48.722;9.362;2024-03-02T02:32:00;49.70;;;37.23;;
46589;SDS011;32313;48.722;9.362;2024-03-02T02:34:26;49.33;;;37.57;;
46589;SDS011;32313;48.722;9.362;2024-03-02T02:36:52;52.30;;;38.80;;
46589;SDS011;32313;48.722;9.362;2024-03-02T02:39:19;53.17;;;37.37;;
46589;SDS011;32313;48.722;9.362;2024-03-02T02:41:47;46.33;;;35.87;;
46589;SDS011;32313;48.722;9.362;2024-03-02T02:44:13;49.37;;;36.60;;
46589;SDS011;32313;48.722;9.362;2024-03-02T02:46:39;49.43;;;37.30;;
46589;SDS011;32313;48.722;9.362;2024-03-02T02:49:06;55.13;;;38.67;;
46589;SDS011;32313;48.722;9.362;2024-03-02T02:51:31;51.73;;;35.97;;
46589;SDS011;32313;48.722;9.362;2024-03-02T02:53:57;54.43;;;37.10;;
46589;SDS011;32313;48.722;9.362;2024-03-02T02:56:23;51.13;;;37.03;;
46589;SDS011;32313;48.722;9.362;2024-03-02T02:58:48;52.57;;;36.67;;
46589;SDS011;32313;48.722;9.362;2024-03-02T03:01:15;47.80;;;36.30;;
46589;SDS011;32313;48.722;9.362;2024-03-02T03:03:44;58.10;;;41.30;;
46589;SDS011;32313;48.722;9.362;2024-03-02T03:06:10;53.87;;;38.37;;
46589;SDS011;32313;48.722;9.362;2024-03-02T03:08:36;58.17;;;39.67;;
46589;SDS011;32313;48.722;9.362;2024-03-02T03:11:03;56.37;;;38.70;;
46589;SDS011;32313;48.722;9.362;2024-03-02T03:13:30;59.10;;;39.10;;
46589;SDS011;32313;48.722;9.362;2024-03-02T03:15:56;56.83;;;39.17;;
46589;SDS011;32313;48.722;9.362;2024-03-02T03:18:22;66.30;;;39.63;;
46589;SDS011;32313;48.722;9.362;2024-03-02T03:20:48;59.43;;;38.80;;
46589;SDS011;32313;48.722;9.362;2024-03-02T03:23:13;59.17;;;41.03;;
46589;SDS011;32313;48.722;9.362;2024-03-02T03:25:41;52.13;;;35.17;;
46589;SDS011;32313;48.722;9.362;2024-03-02T03:28:10;53.20;;;39.20;;
46589;SDS011;32313;48.722;9.362;2024-03-02T03:30:48;48.37;;;36.67;;
46589;SDS011;32313;48.722;9.362;2024-03-02T03:33:13;63.10;;;40.03;;
46589;SDS011;32313;48.722;9.362;2024-03-02T03:35:39;58.23;;;40.13;;
46589;SDS011;32313;48.722;9.362;2024-03-02T03:38:06;64.40;;;42.37;;
46589;SDS011;32313;48.722;9.362;2024-03-02T03:40:32;58.80;;;39.30;;
46589;SDS011;32313;48.722;9.362;2024-03-02T03:42:57;62.60;;;40.93;;
46589;SDS011;32313;48.722;9.362;2024-03-02T03:45:25;67.47;;;40.33;;
46589;SDS011;32313;48.722;9.362;2024-03-02T03:47:52;54.00;;;36.90;;
46589;SDS011;32313;48.722;9.362;2024-03-02T03:50:18;62.20;;;41.80;;
46589;SDS011;32313;48.722;9.362;2024-03-02T03:52:44;55.73;;;37.73;;
46589;SDS011;32313;48.722;9.362;2024-03-02T03:55:10;59.57;;;41.00;;
46589;SDS011;32313;48.722;9.362;2024-03-02T03:57:36;59.63;;;40.47;;
46589;SDS011;32313;48.722;9.362;2024-03-02T04:00:02;59.33;;;39.97;;
46589;SDS011;32313;48.722;9.362;2024-03-02T04:02:37;59.20;;;38.93;;
46589;SDS011;32313;48.722;9.362;2024-03-02T04:05:03;64.00;;;41.03;;
46589;SDS011;32313;48.722;9.362;2024-03-02T04:07:33;52.23;;;36.17;;
46589;SDS011;32313;48.722;9.362;2024-03-02T04:10:05;57.70;;;37.43;;
46589;SDS011;32313;48.722;9.362;2024-03-02T04:12:33;56.93;;;37.97;;
46589;SDS011;32313;48.722;9.362;2024-03-02T04:14:59;47.10;;;35.33;;
46589;SDS011;32313;48.722;9.362;2024-03-02T04:17:26;49.67;;;37.07;;
46589;SDS011;32313;48.722;9.362;2024-03-02T04:19:52;61.10;;;39.73;;
46589;SDS011;32313;48.722;9.362;2024-03-02T04:22:18;56.70;;;40.20;;
46589;SDS011;32313;48.722;9.362;2024-03-02T04:24:44;50.90;;;33.60;;
46589;SDS011;32313;48.722;9.362;2024-03-02T04:27:09;55.30;;;35.03;;
46589;SDS011;32313;48.722;9.362;2024-03-02T04:29:35;53.60;;;35.20;;
46589;SDS011;32313;48.722;9.362;2024-03-02T04:32:00;61.73;;;40.07;;
46589;SDS011;32313;48.722;9.362;2024-03-02T04:34:26;68.17;;;42.33;;
46589;SDS011;32313;48.722;9.362;2024-03-02T04:36:52;63.17;;;40.57;;
46589;SDS011;32313;48.722;9.362;2024-03-02T04:39:17;59.97;;;39.00;;
46589;SDS011;32313;48.722;9.362;2024-03-02T04:41:43;62.50;;;40.23;;
46589;SDS011;32313;48.722;9.362;2024-03-02T04:44:09;65.40;;;39.33;;
46589;SDS011;32313;48.722;9.362;2024-03-02T04:46:35;61.10;;;39.07;;
46589;SDS011;32313;48.722;9.362;2024-03-02T04:49:00;69.37;;;41.53;;
46589;SDS011;32313;48.722;9.362;2024-03-02T04:51:26;75.60;;;46.00;;
46589;SDS011;32313;48.722;9.362;2024-03-02T04:53:55;65.03;;;43.10;;
46589;SDS011;32313;48.722;9.362;2024-03-02T04:56:20;65.80;;;43.23;;
46589;SDS011;32313;48.722;9.362;2024-03-02T04:59:09;63.77;;;41.13;;
46589;SDS011;32313;48.722;9.362;2024-03-02T05:01:35;67.30;;;40.37;;
46589;SDS011;32313;48.722;9.362;2024-03-02T05:04:01;64.60;;;40.53;;
46589;SDS011;32313;48.722;9.362;2024-03-02T05:06:27;59.60;;;39.43;;
46589;SDS011;32313;48.722;9.362;2024-03-02T05:08:52;61.97;;;39.47;;
46589;SDS011;32313;48.722;9.362;2024-03-02T05:11:18;62.20;;;38.53;;
46589;SDS011;32313;48.722;9.362;2024-03-02T05:14:02;54.60;;;35.27;;
46589;SDS011;32313;48.722;9.362;2024-03-02T05:16:34;54.50;;;37.47;;
46589;SDS011;32313;48.722;9.362;2024-03-02T05:19:00;57.83;;;35.67;;
46589;SDS011;32313;48.722;9.362;2024-03-02T05:21:26;59.10;;;35.60;;
46589;SDS011;32313;48.722;9.362;2024-03-02T05:23:52;62.27;;;38.87;;
46589;SDS011;32313;48.722;9.362;2024-03-02T05:26:17;70.37;;;40.43;;
46589;SDS011;32313;48.722;9.362;2024-03-02T05:28:43;66.33;;;41.17;;
46589;SDS011;32313;48.722;9.362;2024-03-02T05:31:10;59.37;;;35.67;;
46589;SDS011;32313;48.722;9.362;2024-03-02T05:33:39;60.87;;;37.90;;
46589;SDS011;32313;48.722;9.362;2024-03-02T05:36:05;61.27;;;37.47;;
46589;SDS011;32313;48.722;9.362;2024-03-02T05:38:32;56.13;;;34.97;;
46589;SDS011;32313;48.722;9.362;2024-03-02T05:40:59;55.03;;;37.47;;
46589;SDS011;32313;48.722;9.362;2024-03-02T05:43:25;57.17;;;36.97;;
46589;SDS011;32313;48.722;9.362;2024-03-02T05:45:51;59.53;;;39.47;;
46589;SDS011;32313;48.722;9.362;2024-03-02T05:48:16;63.63;;;40.40;;
46589;SDS011;32313;48.722;9.362;2024-03-02T05:50:42;66.13;;;40.73;;
46589;SDS011;32313;48.722;9.362;2024-03-02T05:53:08;58.93;;;39.13;;
46589;SDS011;32313;48.722;9.362;2024-03-02T05:55:34;66.20;;;40.67;;
46589;SDS011;32313;48.722;9.362;2024-03-02T05:58:00;55.20;;;37.03;;
46589;SDS011;32313;48.722;9.362;2024-03-02T06:00:31;60.17;;;42.00;;
46589;SDS011;32313;48.722;9.362;2024-03-02T06:02:57;57.97;;;40.57;;
46589;SDS011;32313;48.722;9.362;2024-03-02T06:05:23;62.07;;;41.50;;
46589;SDS011;32313;48.722;9.362;2024-03-02T06:07:50;64.43;;;41.37;;
46589;SDS011;32313;48.722;9.362;2024-03-02T06:10:15;64.83;;;40.90;;
46589;SDS011;32313;48.722;9.362;2024-03-02T06:12:42;58.73;;;39.97;;
46589;SDS011;32313;48.722;9.362;2024-03-02T06:15:08;59.30;;;40.97;;
46589;SDS011;32313;48.722;9.362;2024-03-02T06:17:35;57.03;;;38.97;;
46589;SDS011;32313;48.722;9.362;2024-03-02T06:20:00;57.53;;;40.77;;
46589;SDS011;32313;48.722;9.362;2024-03-02T06:22:26;60.83;;;43.03;;
46589;SDS011;32313;48.722;9.362;2024-03-02T06:24:52;62.20;;;38.50;;
46589;SDS011;32313;48.722;9.362;2024-03-02T06:27:18;55.77;;;38.30;;
46589;SDS011;32313;48.722;9.362;2024-03-02T06:29:44;53.60;;;37.53;;
46589;SDS011;32313;48.722;9.362;2024-03-02T06:32:09;57.30;;;39.87;;
46589;SDS011;32313;48.722;9.362;2024-03-02T06:34:35;60.63;;;39.90;;
46589;SDS011;32313;48.722;9.362;2024-03-02T06:37:01;55.27;;;37.90;;
46589;SDS011;32313;48.722;9.362;2024-03-02T06:39:26;56.50;;;39.77;;
46589;SDS011;32313;48.722;9.362;2024-03-02T06:41:52;56.73;;;37.63;;
46589;SDS011;32313;48.722;9.362;2024-03-02T06:44:17;55.17;;;38.50;;
46589;SDS011;32313;48.722;9.362;2024-03-02T06:46:43;58.60;;;39.27;;
46589;SDS011;32313;48.722;9.362;2024-03-02T06:49:09;53.53;;;36.97;;
46589;SDS011;32313;48.722;9.362;2024-03-02T06:51:37;57.27;;;39.70;;
46589;SDS011;32313;48.722;9.362;2024-03-02T06:54:03;53.10;;;37.27;;
46589;SDS011;32313;48.722;9.362;2024-03-02T06:56:29;57.80;;;40.70;;
46589;SDS011;32313;48.722;9.362;2024-03-02T06:58:55;57.40;;;41.00;;
46589;SDS011;32313;48.722;9.362;2024-03-02T07:01:21;55.03;;;37.70;;
46589;SDS011;32313;48.722;9.362;2024-03-02T07:03:47;58.50;;;41.33;;
46589;SDS011;32313;48.722;9.362;2024-03-02T07:06:12;53.23;;;38.20;;
46589;SDS011;32313;48.722;9.362;2024-03-02T07:08:38;50.50;;;36.57;;
46589;SDS011;32313;48.722;9.362;2024-03-02T07:11:04;59.07;;;40.13;;
46589;SDS011;32313;48.722;9.362;2024-03-02T07:13:29;59.03;;;39.83;;
46589;SDS011;32313;48.722;9.362;2024-03-02T07:15:55;48.73;;;34.03;;
46589;SDS011;32313;48.722;9.362;2024-03-02T07:18:36;51.03;;;36.53;;
46589;SDS011;32313;48.722;9.362;2024-03-02T07:21:09;56.90;;;38.13;;
46589;SDS011;32313;48.722;9.362;2024-03-02T07:23:35;50.07;;;36.63;;
46589;SDS011;32313;48.722;9.362;2024-03-02T07:26:01;52.13;;;38.10;;
46589;SDS011;32313;48.722;9.362;2024-03-02T07:28:28;54.60;;;38.53;;
46589;SDS011;32313;48.722;9.362;2024-03-02T07:30:58;54.67;;;38.93;;
46589;SDS011;32313;48.722;9.362;2024-03-02T07:33:27;49.40;;;35.73;;
46589;SDS011;32313;48.722;9.362;2024-03-02T07:35:56;56.00;;;37.50;;
46589;SDS011;32313;48.722;9.362;2024-03-02T07:38:24;53.73;;;38.60;;
46589;SDS011;32313;48.722;9.362;2024-03-02T07:40:50;59.20;;;37.53;;
46589;SDS011;32313;48.722;9.362;2024-03-02T07:43:16;57.50;;;39.80;;
46589;SDS011;32313;48.722;9.362;2024-03-02T07:45:42;58.70;;;38.43;;
46589;SDS011;32313;48.722;9.362;2024-03-02T07:48:08;56.60;;;38.20;;
46589;SDS011;32313;48.722;9.362;2024-03-02T07:50:34;58.60;;;40.80;;
46589;SDS011;32313;48.722;9.362;2024-03-02T07:53:03;56.63;;;35.93;;
46589;SDS011;32313;48.722;9.362;2024-03-02T07:55:29;40.93;;;31.77;;
46589;SDS011;32313;48.722;9.362;2024-03-02T07:57:55;40.37;;;29.40;;
46589;SDS011;32313;48.722;9.362;2024-03-02T08:00:21;35.43;;;28.67;;
46589;SDS011;32313;48.722;9.362;2024-03-02T08:02:48;39.57;;;27.00;;
46589;SDS011;32313;48.722;9.362;2024-03-02T08:05:16;30.03;;;24.77;;
46589;SDS011;32313;48.722;9.362;2024-03-02T08:07:43;29.27;;;23.63;;
46589;SDS011;32313;48.722;9.362;2024-03-02T08:10:09;28.67;;;23.80;;
46589;SDS011;32313;48.722;9.362;2024-03-02T08:12:35;26.63;;;23.73;;
46589;SDS011;32313;48.722;9.362;2024-03-02T08:15:01;33.93;;;25.37;;
46589;SDS011;32313;48.722;9.362;2024-03-02T08:17:27;26.13;;;22.87;;
46589;SDS011;32313;48.722;9.362;2024-03-02T08:19:52;32.57;;;24.03;;
46589;SDS011;32313;48.722;9.362;2024-03-02T08:22:19;31.90;;;25.67;;
46589;SDS011;32313;48.722;9.362;2024-03-02T08:24:45;30.63;;;25.67;;
46589;SDS011;32313;48.722;9.362;2024-03-02T08:27:11;32.60;;;25.37;;
46589;SDS011;32313;48.722;9.362;2024-03-02T08:29:37;32.10;;;25.40;;
46589;SDS011;32313;48.722;9.362;2024-03-02T08:32:03;38.63;;;27.43;;
46589;SDS011;32313;48.722;9.362;2024-03-02T08:34:29;29.37;;;24.87;;
46589;SDS011;32313;48.722;9.362;2024-03-02T08:36:55;32.33;;;25.10;;
46589;SDS011;32313;48.722;9.362;2024-03-02T08:39:21;29.07;;;24.20;;
46589;SDS011;32313;48.722;9.362;2024-03-02T08:41:47;30.53;;;24.27;;
46589;SDS011;32313;48.722;9.362;2024-03-02T08:44:13;29.63;;;23.17;;
46589;SDS011;32313;48.722;9.362;2024-03-02T08:46:39;27.07;;;22.43;;
46589;SDS011;32313;48.722;9.362;2024-03-02T08:49:05;25.67;;;22.83;;
46589;SDS011;32313;48.722;9.362;2024-03-02T08:51:33;23.97;;;21.53;;
46589;SDS011;32313;48.722;9.362;2024-03-02T08:53:58;26.83;;;22.77;;
46589;SDS011;32313;48.722;9.362;2024-03-02T08:56:24;24.83;;;21.03;;
46589;SDS011;32313;48.722;9.362;2024-03-02T08:58:51;22.77;;;20.47;;
46589;SDS011;32313;48.722;9.362;2024-03-02T09:01:17;24.13;;;21.40;;
46589;SDS011;32313;48.722;9.362;2024-03-02T09:03:44;21.87;;;19.57;;
46589;SDS011;32313;48.722;9.362;2024-03-02T09:06:10;18.90;;;17.00;;
46589;SDS011;32313;48.722;9.362;2024-03-02T09:08:36;18.17;;;16.37;;
46589;SDS011;32313;48.722;9.362;2024-03-02T09:11:04;17.03;;;15.20;;
46589;SDS011;32313;48.722;9.362;2024-03-02T09:13:31;16.43;;;14.03;;
46589;SDS011;32313;48.722;9.362;2024-03-02T09:15:57;15.17;;;13.67;;
46589;SDS011;32313;48.722;9.362;2024-03-02T09:18:23;14.90;;;13.30;;
46589;SDS011;32313;48.722;9.362;2024-03-02T09:20:48;15.20;;;13.70;;
46589;SDS011;32313;48.722;9.362;2024-03-02T09:23:14;14.23;;;12.83;;
46589;SDS011;32313;48.722;9.362;2024-03-02T09:25:40;13.67;;;12.37;;
46589;SDS011;32313;48.722;9.362;2024-03-02T09:28:05;13.73;;;12.43;;
46589;SDS011;32313;48.722;9.362;2024-03-02T09:30:32;14.10;;;12.70;;
46589;SDS011;32313;48.722;9.362;2024-03-02T09:32:58;13.07;;;11.83;;
46589;SDS011;32313;48.722;9.362;2024-03-02T09:35:24;10.83;;;9.77;;
46589;SDS011;32313;48.722;9.362;2024-03-02T09:37:49;9.27;;;8.37;;
46589;SDS011;32313;48.722;9.362;2024-03-02T09:40:15;11.13;;;10.00;;
46589;SDS011;32313;48.722;9.362;2024-03-02T09:42:41;9.50;;;8.60;;
46589;SDS011;32313;48.722;9.362;2024-03-02T09:45:08;8.97;;;8.13;;
46589;SDS011;32313;48.722;9.362;2024-03-02T09:47:34;10.13;;;7.53;;
46589;SDS011;32313;48.722;9.362;2024-03-02T09:50:00;8.60;;;7.80;;
46589;SDS011;32313;48.722;9.362;2024-03-02T09:52:26;8.97;;;8.17;;
46589;SDS011;32313;48.722;9.362;2024-03-02T09:54:52;8.53;;;7.77;;
46589;SDS011;32313;48.722;9.362;2024-03-02T09:57:18;7.63;;;6.90;;
46589;SDS011;32313;48.722;9.362;2024-03-02T09:59:43;6.97;;;6.27;;
46589;SDS011;32313;48.722;9.362;2024-03-02T10:02:10;6.73;;;6.13;;
46589;SDS011;32313;48.722;9.362;2024-03-02T10:04:36;7.83;;;6.87;;
46589;SDS011;32313;48.722;9.362;2024-03-02T10:07:15;6.87;;;6.27;;
46589;SDS011;32313;48.722;9.362;2024-03-02T10:09:42;7.33;;;5.83;;
46589;SDS011;32313;48.722;9.362;2024-03-02T10:12:09;6.37;;;5.87;;
46589;SDS011;32313;48.722;9.362;2024-03-02T10:14:36;5.60;;;5.00;;
46589;SDS011;32313;48.722;9.362;2024-03-02T10:17:07;5.30;;;4.77;;
46589;SDS011;32313;48.722;9.362;2024-03-02T10:19:35;5.57;;;5.07;;
46589;SDS011;32313;48.722;9.362;2024-03-02T10:22:03;5.00;;;4.60;;
46589;SDS011;32313;48.722;9.362;2024-03-02T10:24:35;4.77;;;4.37;;
46589;SDS011;32313;48.722;9.362;2024-03-02T10:27:10;4.90;;;4.37;;
46589;SDS011;32313;48.722;9.362;2024-03-02T10:29:40;4.97;;;4.57;;
46589;SDS011;32313;48.722;9.362;2024-03-02T10:32:09;4.83;;;4.33;;
46589;SDS011;32313;48.722;9.362;2024-03-02T10:34:36;4.43;;;4.13;;
46589;SDS011;32313;48.722;9.362;2024-03-02T10:37:05;4.53;;;4.13;;
46589;SDS011;32313;48.722;9.362;2024-03-02T10:39:32;4.27;;;3.97;;
46589;SDS011;32313;48.722;9.362;2024-03-02T10:42:00;3.73;;;3.43;;
46589;SDS011;32313;48.722;9.362;2024-03-02T10:44:28;4.10;;;3.60;;
46589;SDS011;32313;48.722;9.362;2024-03-02T10:46:55;3.80;;;3.50;;
46589;SDS011;32313;48.722;9.362;2024-03-02T10:49:22;3.70;;;3.40;;
46589;SDS011;32313;48.722;9.362;2024-03-02T10:51:51;4.30;;;3.90;;
46589;SDS011;32313;48.722;9.362;2024-03-02T10:54:19;4.80;;;4.03;;
46589;SDS011;32313;48.722;9.362;2024-03-02T10:56:58;3.70;;;3.30;;
46589;SDS011;32313;48.722;9.362;2024-03-02T10:59:28;3.60;;;3.30;;
46589;SDS011;32313;48.722;9.362;2024-03-02T11:01:59;5.07;;;4.07;;
46589;SDS011;32313;48.722;9.362;2024-03-02T11:04:28;4.10;;;3.80;;
46589;SDS011;32313;48.722;9.362;2024-03-02T11:06:58;3.50;;;3.20;;
46589;SDS011;32313;48.722;9.362;2024-03-02T11:09:29;3.70;;;3.40;;
46589;SDS011;32313;48.722;9.362;2024-03-02T11:14:48;3.70;;;3.37;;
46589;SDS011;32313;48.722;9.362;2024-03-02T11:17:19;3.87;;;3.23;;
46589;SDS011;32313;48.722;9.362;2024-03-02T11:19:46;3.33;;;3.03;;
46589;SDS011;32313;48.722;9.362;2024-03-02T11:22:12;3.17;;;2.87;;
46589;SDS011;32313;48.722;9.362;2024-03-02T11:24:40;3.23;;;2.93;;
46589;SDS011;32313;48.722;9.362;2024-03-02T11:27:59;3.43;;;3.13;;
46589;SDS011;32313;48.722;9.362;2024-03-02T11:32:59;2.80;;;2.60;;
46589;SDS011;32313;48.722;9.362;2024-03-02T11:35:25;2.70;;;2.50;;
46589;SDS011;32313;48.722;9.362;2024-03-02T11:37:52;2.43;;;1.97;;
46589;SDS011;32313;48.722;9.362;2024-03-02T11:40:27;2.60;;;2.13;;
46589;SDS011;32313;48.722;9.362;2024-03-02T11:42:53;2.00;;;1.90;;
46589;SDS011;32313;48.722;9.362;2024-03-02T11:45:27;2.20;;;2.00;;
46589;SDS011;32313;48.722;9.362;2024-03-02T11:47:54;1.90;;;1.70;;
46589;SDS011;32313;48.722;9.362;2024-03-02T11:50:31;2.30;;;1.87;;
46589;SDS011;32313;48.722;9.362;2024-03-02T11:53:00;2.83;;;1.80;;
46589;SDS011;32313;48.722;9.362;2024-03-02T11:55:27;2.23;;;1.30;;
46589;SDS011;32313;48.722;9.362;2024-03-02T11:57:55;1.60;;;1.50;;
46589;SDS011;32313;48.722;9.362;2024-03-02T12:00:21;1.60;;;1.50;;
46589;SDS011;32313;48.722;9.362;2024-03-02T12:03:00;1.70;;;1.60;;
46589;SDS011;32313;48.722;9.362;2024-03-02T12:05:27;2.03;;;1.77;;
46589;SDS011;32313;48.722;9.362;2024-03-02T12:07:57;1.80;;;1.70;;
46589;SDS011;32313;48.722;9.362;2024-03-02T12:10:30;1.53;;;1.43;;
46589;SDS011;32313;48.722;9.362;2024-03-02T12:13:01;1.90;;;1.80;;
46589;SDS011;32313;48.722;9.362;2024-03-02T12:15:37;1.67;;;1.57;;
46589;SDS011;32313;48.722;9.362;2024-03-02T12:18:03;1.67;;;1.57;;
46589;SDS011;32313;48.722;9.362;2024-03-02T12:20:30;2.73;;;1.70;;
46589;SDS011;32313;48.722;9.362;2024-03-02T12:23:01;2.10;;;1.90;;
46589;SDS011;32313;48.722;9.362;2024-03-02T12:25:28;1.93;;;1.60;;
46589;SDS011;32313;48.722;9.362;2024-03-02T12:27:55;1.80;;;1.70;;
46589;SDS011;32313;48.722;9.362;2024-03-02T12:30:23;2.10;;;1.57;;
46589;SDS011;32313;48.722;9.362;2024-03-02T12:32:49;1.80;;;1.70;;
46589;SDS011;32313;48.722;9.362;2024-03-02T12:35:15;2.00;;;1.83;;
46589;SDS011;32313;48.722;9.362;2024-03-02T12:37:44;1.70;;;1.60;;
46589;SDS011;32313;48.722;9.362;2024-03-02T12:40:12;1.50;;;1.40;;
46589;SDS011;32313;48.722;9.362;2024-03-02T12:42:38;1.43;;;1.33;;
46589;SDS011;32313;48.722;9.362;2024-03-02T12:45:07;3.27;;;1.50;;
46589;SDS011;32313;48.722;9.362;2024-03-02T12:47:33;1.70;;;1.60;;
46589;SDS011;32313;48.722;9.362;2024-03-02T12:50:06;1.57;;;1.47;;
46589;SDS011;32313;48.722;9.362;2024-03-02T12:52:32;1.60;;;1.50;;
46589;SDS011;32313;48.722;9.362;2024-03-02T12:54:59;1.93;;;1.50;;
46589;SDS011;32313;48.722;9.362;2024-03-02T12:57:28;2.07;;;1.33;;
46589;SDS011;32313;48.722;9.362;2024-03-02T13:00:04;1.40;;;1.30;;
46589;SDS011;32313;48.722;9.362;2024-03-02T13:02:35;1.57;;;1.33;;
46589;SDS011;32313;48.722;9.362;2024-03-02T13:05:01;1.50;;;1.30;;
46589;SDS011;32313;48.722;9.362;2024-03-02T13:07:28;1.37;;;1.27;;
46589;SDS011;32313;48.722;9.362;2024-03-02T13:09:54;1.33;;;1.23;;
46589;SDS011;32313;48.722;9.362;2024-03-02T13:12:22;1.10;;;1.10;;
46589;SDS011;32313;48.722;9.362;2024-03-02T13:14:49;1.08;;;1.08;;
46589;SDS011;32313;48.722;9.362;2024-03-02T13:17:20;1.40;;;1.30;;
46589;SDS011;32313;48.722;9.362;2024-03-02T13:19:55;1.23;;;1.15;;
46589;SDS011;32313;48.722;9.362;2024-03-02T13:22:22;1.38;;;1.27;;
46589;SDS011;32313;48.722;9.362;2024-03-02T13:24:49;1.35;;;1.25;;
46589;SDS011;32313;48.722;9.362;2024-03-02T13:27:16;1.50;;;1.40;;
46589;SDS011;32313;48.722;9.362;2024-03-02T13:29:45;2.15;;;1.20;;
46589;SDS011;32313;48.722;9.362;2024-03-02T13:32:12;1.27;;;1.17;;
46589;SDS011;32313;48.722;9.362;2024-03-02T13:34:39;1.02;;;1.00;;
46589;SDS011;32313;48.722;9.362;2024-03-02T13:37:05;0.98;;;0.98;;
46589;SDS011;32313;48.722;9.362;2024-03-02T13:39:33;1.52;;;1.30;;
46589;SDS011;32313;48.722;9.362;2024-03-02T13:42:06;1.20;;;1.10;;
46589;SDS011;32313;48.722;9.362;2024-03-02T13:44:34;0.95;;;0.95;;
46589;SDS011;32313;48.722;9.362;2024-03-02T13:47:00;1.20;;;1.10;;
46589;SDS011;32313;48.722;9.362;2024-03-02T13:49:26;1.08;;;1.08;;
46589;SDS011;32313;48.722;9.362;2024-03-02T13:52:05;0.93;;;0.93;;
46589;SDS011;32313;48.722;9.362;2024-03-02T13:54:45;1.23;;;1.10;;
46589;SDS011;32313;48.722;9.362;2024-03-02T13:57:12;1.53;;;1.00;;
46589;SDS011;32313;48.722;9.362;2024-03-02T13:59:38;1.27;;;1.10;;
46589;SDS011;32313;48.722;9.362;2024-03-02T14:02:05;1.33;;;1.23;;
46589;SDS011;32313;48.722;9.362;2024-03-02T14:04:35;1.00;;;1.00;;
46589;SDS011;32313;48.722;9.362;2024-03-02T14:07:02;1.02;;;1.02;;
46589;SDS011;32313;48.722;9.362;2024-03-02T14:09:28;1.05;;;1.05;;
46589;SDS011;32313;48.722;9.362;2024-03-02T14:11:54;0.95;;;0.95;;
46589;SDS011;32313;48.722;9.362;2024-03-02T14:14:21;1.30;;;1.20;;
46589;SDS011;32313;48.722;9.362;2024-03-02T14:16:47;1.00;;;1.00;;
46589;SDS011;32313;48.722;9.362;2024-03-02T14:19:14;1.97;;;1.20;;
46589;SDS011;32313;48.722;9.362;2024-03-02T14:21:39;0.83;;;0.83;;
46589;SDS011;32313;48.722;9.362;2024-03-02T14:24:05;1.27;;;1.13;;
46589;SDS011;32313;48.722;9.362;2024-03-02T14:26:37;0.97;;;0.97;;
46589;SDS011;32313;48.722;9.362;2024-03-02T14:29:03;1.73;;;1.40;;
46589;SDS011;32313;48.722;9.362;2024-03-02T14:31:29;1.70;;;1.43;;
46589;SDS011;32313;48.722;9.362;2024-03-02T14:33:56;1.40;;;1.30;;
46589;SDS011;32313;48.722;9.362;2024-03-02T14:36:22;2.27;;;1.43;;
46589;SDS011;32313;48.722;9.362;2024-03-02T14:38:48;1.40;;;1.30;;
46589;SDS011;32313;48.722;9.362;2024-03-02T14:41:14;1.43;;;1.33;;
46589;SDS011;32313;48.722;9.362;2024-03-02T14:43:40;1.47;;;1.23;;